Time;durP1;ratioP1;P1;durP2;ratioP2;P2;SDS_P1;SDS_P2;PMS_P1;PMS_P2;Temp;Humidity;BMP_temperature;BMP_pressure;BME280_temperature;BME280_humidity;BME280_pressure;Samples;Min_cycle;Max_cycle;Signal;HPM_P1;HPM_P2
2022/07/10 00:01:47;;;;;;;0.20;0.20;;;24.70;51.50;;;;;;6299155;28;20226;-43
2022/07/10 00:04:52;;;;;;;0.20;0.20;;;24.60;51.40;;;;;;6308791;28;20774;-41
2022/07/10 00:07:57;;;;;;;0.10;0.10;;;24.70;51.50;;;;;;6299969;28;20154;-43
2022/07/10 00:10:59;;;;;;;0.15;0.15;;;24.70;51.60;;;;;;6306961;28;20027;-45
2022/07/10 00:14:01;;;;;;;0.15;0.15;;;24.70;51.60;;;;;;6304443;28;20145;-44
2022/07/10 00:17:02;;;;;;;0.20;0.20;;;24.60;51.70;;;;;;6308489;28;20103;-42
2022/07/10 00:20:06;;;;;;;0.20;0.20;;;24.60;51.70;;;;;;6286773;28;20048;-44
2022/07/10 00:23:07;;;;;;;0.20;0.20;;;24.60;51.80;;;;;;6304085;28;20071;-44
2022/07/10 00:26:09;;;;;;;0.10;0.10;;;24.50;51.80;;;;;;6299097;28;20048;-45
2022/07/10 00:29:11;;;;;;;0.10;0.10;;;24.50;51.80;;;;;;6288712;28;20075;-42
2022/07/10 00:32:12;;;;;;;0.28;0.28;;;24.60;51.90;;;;;;6291260;28;20071;-46
2022/07/10 00:35:14;;;;;;;0.20;0.10;;;24.50;51.90;;;;;;6269955;28;20036;-43
2022/07/10 00:38:16;;;;;;;0.20;0.20;;;24.50;51.90;;;;;;6283542;28;20909;-41
2022/07/10 00:41:18;;;;;;;0.30;0.30;;;24.60;52.00;;;;;;6286671;28;20166;-43
2022/07/10 00:44:19;;;;;;;0.10;0.10;;;24.50;52.00;;;;;;6286443;28;20139;-42
2022/07/10 00:47:21;;;;;;;0.20;0.20;;;24.50;52.10;;;;;;6292618;28;20833;-45
2022/07/10 00:50:23;;;;;;;0.20;0.20;;;24.30;52.10;;;;;;6301424;28;20047;-41
2022/07/10 00:53:25;;;;;;;0.30;0.30;;;24.30;52.10;;;;;;6287485;28;20575;-44
2022/07/10 00:56:28;;;;;;;0.28;0.20;;;24.40;52.20;;;;;;6295071;28;20050;-45
2022/07/10 00:59:30;;;;;;;0.28;0.28;;;24.40;52.20;;;;;;6267740;28;20131;-49
2022/07/10 01:02:32;;;;;;;0.17;0.15;;;24.40;52.20;;;;;;6302192;28;20035;-50
2022/07/10 01:05:34;;;;;;;0.20;0.20;;;24.40;52.30;;;;;;6297152;28;20785;-44
2022/07/10 01:08:36;;;;;;;0.20;0.20;;;24.40;52.30;;;;;;6296043;28;20051;-42
2022/07/10 01:11:39;;;;;;;0.20;0.20;;;24.50;52.40;;;;;;6297620;28;20276;-43
2022/07/10 01:14:43;;;;;;;0.30;0.28;;;24.40;52.40;;;;;;6288126;28;20756;-47
2022/07/10 01:17:45;;;;;;;0.30;0.30;;;24.30;52.30;;;;;;6281397;28;21230;-43
2022/07/10 01:20:50;;;;;;;0.25;0.25;;;24.30;52.40;;;;;;6282678;28;20605;-45
2022/07/10 01:23:52;;;;;;;0.38;0.30;;;24.40;52.50;;;;;;6284557;28;20316;-45
2022/07/10 01:26:54;;;;;;;0.30;0.30;;;24.30;52.40;;;;;;6280240;28;20154;-45
2022/07/10 01:29:55;;;;;;;0.20;0.20;;;24.10;52.40;;;;;;6291313;28;20137;-46
2022/07/10 01:32:57;;;;;;;0.30;0.30;;;24.30;52.50;;;;;;6289182;28;20185;-48
2022/07/10 01:35:59;;;;;;;0.30;0.28;;;24.30;52.50;;;;;;6288977;28;20690;-45
2022/07/10 01:39:01;;;;;;;0.40;0.28;;;24.30;52.50;;;;;;6301985;28;20050;-46
2022/07/10 01:42:03;;;;;;;0.20;0.20;;;24.30;52.50;;;;;;6293041;28;20036;-44
2022/07/10 01:45:06;;;;;;;0.30;0.30;;;24.20;52.50;;;;;;6297453;28;20040;-47
2022/07/10 01:48:08;;;;;;;0.40;0.40;;;24.30;52.60;;;;;;6298401;28;20203;-47
2022/07/10 01:51:11;;;;;;;0.35;0.30;;;24.30;52.60;;;;;;6293200;28;20677;-46
2022/07/10 01:54:13;;;;;;;0.30;0.20;;;24.20;52.50;;;;;;6260609;28;20521;-45
2022/07/10 01:57:15;;;;;;;0.45;0.30;;;24.20;52.50;;;;;;6281901;28;20210;-43
2022/07/10 02:00:17;;;;;;;0.10;0.10;;;24.20;52.50;;;;;;6284688;28;20076;-46
2022/07/10 02:06:35;;;;;;;0.40;0.30;;;24.10;52.50;;;;;;6292116;28;20139;-43
2022/07/10 02:09:38;;;;;;;0.30;0.30;;;24.20;52.50;;;;;;6289469;28;20039;-47
2022/07/10 02:12:40;;;;;;;0.35;0.30;;;24.20;52.60;;;;;;6296132;28;20523;-43
2022/07/10 02:15:45;;;;;;;0.20;0.20;;;24.20;52.60;;;;;;6300454;28;20762;-44
2022/07/10 02:18:46;;;;;;;0.40;0.30;;;24.20;52.60;;;;;;6291596;28;20835;-46
2022/07/10 02:21:48;;;;;;;0.20;0.20;;;24.10;52.60;;;;;;6284072;28;20385;-47
2022/07/10 02:24:50;;;;;;;0.20;0.20;;;24.10;52.60;;;;;;6291124;28;20143;-45
2022/07/10 02:27:51;;;;;;;0.30;0.30;;;24.10;52.60;;;;;;6272932;28;20285;-46
2022/07/10 02:30:53;;;;;;;0.30;0.30;;;24.00;52.60;;;;;;6280191;28;20376;-43
2022/07/10 02:33:55;;;;;;;0.30;0.28;;;24.00;52.70;;;;;;6289340;28;20067;-45
2022/07/10 02:36:57;;;;;;;0.30;0.30;;;24.20;52.70;;;;;;6287121;28;20043;-43
2022/07/10 02:40:02;;;;;;;0.20;0.20;;;24.00;52.60;;;;;;6285638;28;20570;-43
2022/07/10 02:43:03;;;;;;;0.38;0.28;;;24.00;52.70;;;;;;6290531;28;20167;-46
2022/07/10 02:46:05;;;;;;;0.30;0.30;;;24.00;52.70;;;;;;6287595;28;20273;-46
2022/07/10 02:49:07;;;;;;;0.35;0.30;;;23.90;52.70;;;;;;6288708;28;20335;-49
2022/07/10 02:52:09;;;;;;;0.43;0.40;;;23.90;52.70;;;;;;6284434;28;20044;-45
2022/07/10 02:55:10;;;;;;;0.50;0.50;;;23.90;52.70;;;;;;6286822;28;20074;-47
2022/07/10 02:58:12;;;;;;;0.22;0.22;;;23.80;52.70;;;;;;6295204;28;20035;-45
2022/07/10 03:01:13;;;;;;;0.52;0.30;;;24.00;52.70;;;;;;6297201;28;20054;-47
2022/07/10 03:04:15;;;;;;;0.40;0.40;;;23.90;52.70;;;;;;6298481;28;20915;-45
2022/07/10 03:07:17;;;;;;;0.30;0.30;;;23.90;52.70;;;;;;6304131;28;20305;-47
2022/07/10 03:10:19;;;;;;;0.30;0.30;;;23.90;52.70;;;;;;6283695;28;20044;-48
2022/07/10 03:13:20;;;;;;;0.30;0.30;;;23.80;52.60;;;;;;6283259;28;20093;-46
2022/07/10 03:16:22;;;;;;;0.63;0.40;;;24.00;52.70;;;;;;6284617;28;20163;-43
2022/07/10 03:19:24;;;;;;;0.30;0.30;;;24.00;52.60;;;;;;6279288;28;20047;-43
2022/07/10 03:22:26;;;;;;;0.40;0.30;;;23.90;52.60;;;;;;6280951;28;20519;-45
2022/07/10 03:25:28;;;;;;;0.40;0.38;;;23.80;52.50;;;;;;6283409;28;20938;-48
2022/07/10 03:28:31;;;;;;;0.40;0.40;;;23.80;52.40;;;;;;6277891;28;20208;-46
2022/07/10 03:31:32;;;;;;;0.43;0.30;;;23.90;52.50;;;;;;6278836;28;20450;-43
2022/07/10 03:34:34;;;;;;;0.40;0.30;;;23.80;52.40;;;;;;6281719;28;20122;-45
2022/07/10 03:37:36;;;;;;;0.30;0.30;;;23.90;53.10;;;;;;6281276;28;20035;-44
2022/07/10 03:40:41;;;;;;;0.30;0.30;;;23.70;52.40;;;;;;6279949;28;20135;-46
2022/07/10 03:43:42;;;;;;;0.38;0.30;;;23.90;52.40;;;;;;6276890;28;20158;-45
2022/07/10 03:46:44;;;;;;;0.30;0.22;;;23.90;52.40;;;;;;6278030;28;20044;-47
2022/07/10 03:49:46;;;;;;;0.30;0.30;;;23.80;52.40;;;;;;6282669;28;20216;-45
2022/07/10 03:52:48;;;;;;;0.30;0.30;;;23.80;52.30;;;;;;6291955;28;20140;-43
2022/07/10 03:55:49;;;;;;;0.20;0.20;;;23.90;52.40;;;;;;6278509;28;20291;-47
2022/07/10 03:58:51;;;;;;;0.30;0.30;;;23.80;52.30;;;;;;6276503;28;20099;-45
2022/07/10 04:01:52;;;;;;;;;;;23.70;52.20;;;;;;6277658;28;20161;-44
2022/07/10 04:04:54;;;;;;;0.30;0.30;;;23.80;52.30;;;;;;6278446;28;19934;-46
2022/07/10 04:07:58;;;;;;;0.20;0.20;;;23.70;52.20;;;;;;6283344;28;20332;-44
2022/07/10 04:10:59;;;;;;;0.40;0.40;;;23.80;52.20;;;;;;6275224;28;20051;-48
2022/07/10 04:14:01;;;;;;;0.22;0.22;;;23.60;52.00;;;;;;6283732;28;20398;-43
2022/07/10 04:17:05;;;;;;;0.32;0.20;;;23.70;52.00;;;;;;6280783;28;20556;-43
2022/07/10 04:20:08;;;;;;;0.30;0.30;;;23.80;52.10;;;;;;6277121;28;20047;-45
2022/07/10 04:23:10;;;;;;;0.30;0.30;;;23.70;51.90;;;;;;6264426;28;20606;-45
2022/07/10 04:26:11;;;;;;;0.50;0.50;;;23.80;51.90;;;;;;6280801;28;20074;-45
2022/07/10 04:29:13;;;;;;;0.38;0.28;;;23.80;51.80;;;;;;6282043;28;20229;-45
2022/07/10 04:32:15;;;;;;;0.32;0.30;;;23.80;52.30;;;;;;6279041;28;20075;-43
2022/07/10 04:35:16;;;;;;;0.60;0.45;;;23.80;51.60;;;;;;6281620;28;20039;-45
2022/07/10 04:38:22;;;;;;;0.30;0.30;;;23.90;51.60;;;;;;6282715;28;20142;-45
2022/07/10 04:41:23;;;;;;;0.43;0.35;;;23.80;51.50;;;;;;6298842;28;20154;-46
2022/07/10 04:44:25;;;;;;;0.98;0.50;;;23.90;51.50;;;;;;6287001;28;20253;-43
2022/07/10 04:47:27;;;;;;;0.65;0.30;;;23.90;51.40;;;;;;6285118;28;20753;-48
2022/07/10 04:50:28;;;;;;;0.20;0.20;;;23.80;51.30;;;;;;6287913;28;21272;-46
2022/07/10 04:53:30;;;;;;;0.30;0.30;;;23.80;51.20;;;;;;6285041;28;20484;-45
2022/07/10 04:56:32;;;;;;;0.30;0.30;;;23.80;51.40;;;;;;6283834;28;20078;-45
2022/07/10 04:59:33;;;;;;;0.30;0.30;;;23.90;51.10;;;;;;6281063;28;20350;-44
2022/07/10 05:02:34;;;;;;;0.30;0.30;;;23.80;50.90;;;;;;6286062;28;20051;-45
2022/07/10 05:05:36;;;;;;;0.40;0.40;;;23.90;50.90;;;;;;6291820;28;20071;-44
2022/07/10 05:08:41;;;;;;;0.38;0.30;;;23.90;50.90;;;;;;6293784;28;20051;-44
2022/07/10 05:11:47;;;;;;;0.30;0.30;;;23.90;50.80;;;;;;6297065;28;20051;-45
2022/07/10 05:14:48;;;;;;;0.25;0.25;;;24.00;50.80;;;;;;6288117;28;20529;-47
2022/07/10 05:17:50;;;;;;;0.30;0.30;;;23.80;50.60;;;;;;6290426;28;20158;-44
2022/07/10 05:20:51;;;;;;;0.30;0.30;;;23.80;50.60;;;;;;6294316;28;20315;-44
2022/07/10 05:23:53;;;;;;;0.43;0.30;;;23.80;50.50;;;;;;6291077;28;20036;-45
2022/07/10 05:26:55;;;;;;;0.32;0.30;;;23.80;50.40;;;;;;6285813;28;20391;-47
2022/07/10 05:29:56;;;;;;;0.30;0.30;;;23.90;50.40;;;;;;6284239;28;20082;-43
2022/07/10 05:32:58;;;;;;;0.30;0.22;;;23.90;50.30;;;;;;6282773;28;20048;-46
2022/07/10 05:36:00;;;;;;;0.40;0.30;;;23.90;50.20;;;;;;6278861;28;20290;-45
2022/07/10 05:39:02;;;;;;;0.32;0.30;;;23.90;50.20;;;;;;6283993;28;20170;-43
2022/07/10 05:42:05;;;;;;;0.30;0.30;;;23.90;50.10;;;;;;6274868;28;20342;-48
2022/07/10 05:45:07;;;;;;;0.20;0.20;;;23.90;50.10;;;;;;6277652;28;20811;-43
2022/07/10 05:48:10;;;;;;;0.40;0.30;;;23.80;50.00;;;;;;6269806;28;20137;-42
2022/07/10 05:51:11;;;;;;;0.20;0.20;;;24.10;50.10;;;;;;6289453;28;20646;-45
2022/07/10 05:54:33;;;;;;;0.45;0.30;;;23.90;49.90;;;;;;6267435;28;20476;-46
2022/07/10 05:57:36;;;;;;;0.30;0.30;;;24.00;49.90;;;;;;6290943;28;20049;-45
2022/07/10 06:00:37;;;;;;;0.20;0.20;;;24.00;49.80;;;;;;6268715;28;20039;-47
2022/07/10 06:03:39;;;;;;;0.30;0.30;;;23.90;49.70;;;;;;6288989;28;20070;-44
2022/07/10 06:06:41;;;;;;;0.52;0.22;;;24.00;49.70;;;;;;6293058;28;20508;-45
2022/07/10 06:09:43;;;;;;;0.32;0.30;;;24.00;49.60;;;;;;6289741;28;20046;-44
2022/07/10 06:12:45;;;;;;;0.20;0.20;;;23.90;49.50;;;;;;6272521;28;20082;-44
2022/07/10 06:15:47;;;;;;;0.30;0.25;;;24.00;49.40;;;;;;6293848;28;20078;-43
2022/07/10 06:18:49;;;;;;;0.20;0.20;;;23.90;49.30;;;;;;6285347;28;20066;-46
2022/07/10 06:22:30;;;;;;;0.20;0.20;;;24.00;49.30;;;;;;6288322;28;20456;-47
2022/07/10 06:25:13;;;;;;;0.30;0.30;;;24.00;49.20;;;;;;6272979;28;20461;-47
2022/07/10 06:28:14;;;;;;;0.40;0.20;;;24.00;49.10;;;;;;6282621;28;20032;-43
2022/07/10 06:31:16;;;;;;;0.25;0.15;;;24.00;49.10;;;;;;6273279;28;20933;-43
2022/07/10 06:34:19;;;;;;;0.20;0.20;;;24.00;49.00;;;;;;6275067;28;20073;-44
2022/07/10 06:37:21;;;;;;;0.17;0.17;;;24.00;48.90;;;;;;6275067;28;20074;-43
2022/07/10 06:40:28;;;;;;;0.20;0.20;;;24.00;48.90;;;;;;6275977;28;20274;-48
2022/07/10 06:43:30;;;;;;;0.40;0.32;;;24.10;48.80;;;;;;6278490;28;20125;-44
2022/07/10 06:46:32;;;;;;;0.30;0.30;;;24.10;48.70;;;;;;6281646;28;20131;-46
2022/07/10 06:49:33;;;;;;;0.30;0.30;;;24.10;48.60;;;;;;6288082;28;20043;-44
2022/07/10 06:52:35;;;;;;;;;;;24.10;48.60;;;;;;6287238;28;20448;-46
2022/07/10 06:55:37;;;;;;;;;;;24.10;48.60;;;;;;6268848;28;20016;-44
2022/07/10 06:58:39;;;;;;;0.35;0.30;;;24.20;48.60;;;;;;6289376;28;20667;-46
2022/07/10 07:01:41;;;;;;;0.20;0.20;;;24.20;48.50;;;;;;6280836;28;20357;-47
2022/07/10 07:04:44;;;;;;;0.20;0.20;;;24.10;48.30;;;;;;6271560;28;20054;-45
2022/07/10 07:07:46;;;;;;;0.50;0.30;;;24.20;48.30;;;;;;6273346;28;20385;-45
2022/07/10 07:10:48;;;;;;;0.85;0.38;;;24.20;48.10;;;;;;6279493;28;20129;-45
2022/07/10 07:13:53;;;;;;;0.20;0.20;;;24.20;48.00;;;;;;6277699;28;20051;-49
2022/07/10 07:16:58;;;;;;;0.20;0.20;;;24.00;47.90;;;;;;6276301;28;20079;-45
2022/07/10 07:23:17;;;;;;;0.20;0.20;;;24.20;47.80;;;;;;6269411;28;20091;-44
2022/07/10 07:26:19;;;;;;;0.20;0.20;;;24.10;47.60;;;;;;6277130;28;20685;-45
2022/07/10 07:29:21;;;;;;;0.30;0.30;;;24.10;47.40;;;;;;6256918;28;20251;-43
2022/07/10 07:32:22;;;;;;;0.32;0.20;;;24.10;47.30;;;;;;6273563;28;20131;-46
2022/07/10 07:35:24;;;;;;;0.22;0.20;;;24.20;47.30;;;;;;6275668;28;20134;-44
2022/07/10 07:38:25;;;;;;;0.20;0.20;;;24.10;47.10;;;;;;6270379;28;20381;-46
2022/07/10 07:41:27;;;;;;;0.20;0.20;;;24.30;47.10;;;;;;6271751;28;20151;-43
2022/07/10 07:44:29;;;;;;;0.30;0.25;;;24.20;46.90;;;;;;6256827;28;20146;-45
2022/07/10 07:47:31;;;;;;;0.43;0.25;;;24.20;46.70;;;;;;6282510;28;20075;-45
2022/07/10 07:50:35;;;;;;;0.45;0.28;;;24.10;46.50;;;;;;6276070;28;20338;-47
2022/07/10 07:53:37;;;;;;;0.22;0.20;;;24.20;46.40;;;;;;6241998;28;20044;-47
2022/07/10 07:56:39;;;;;;;0.30;0.20;;;24.30;46.40;;;;;;6275366;28;20341;-44
2022/07/10 07:59:40;;;;;;;0.17;0.17;;;24.20;46.20;;;;;;6257430;28;20112;-45
2022/07/10 08:02:42;;;;;;;0.47;0.25;;;24.30;46.10;;;;;;6259714;28;20040;-46
2022/07/10 08:05:44;;;;;;;0.25;0.20;;;24.20;45.80;;;;;;6283829;28;20068;-46
2022/07/10 08:08:45;;;;;;;0.60;0.25;;;24.20;45.70;;;;;;6281375;28;20119;-45
2022/07/10 08:11:48;;;;;;;0.30;0.30;;;24.30;45.70;;;;;;6296653;28;20064;-43
2022/07/10 08:14:49;;;;;;;0.30;0.20;;;24.30;45.50;;;;;;6291861;28;20226;-45
2022/07/10 08:17:53;;;;;;;0.20;0.13;;;24.40;45.40;;;;;;6289173;28;20160;-47
2022/07/10 08:20:55;;;;;;;0.30;0.20;;;24.30;45.30;;;;;;6279854;28;20279;-44
2022/07/10 08:23:56;;;;;;;0.17;0.17;;;24.40;45.10;;;;;;6289519;28;20040;-45
2022/07/10 08:26:58;;;;;;;0.65;0.30;;;24.30;45.00;;;;;;6287870;28;20059;-45
2022/07/10 08:30:00;;;;;;;0.17;0.17;;;24.30;44.90;;;;;;6280682;28;20696;-44
2022/07/10 08:33:02;;;;;;;0.50;0.20;;;24.30;44.70;;;;;;6271253;28;20050;-44
2022/07/10 08:36:07;;;;;;;0.68;0.20;;;24.40;44.60;;;;;;6276751;28;20036;-43
2022/07/10 08:39:28;;;;;;;0.10;0.10;;;24.30;44.40;;;;;;6261588;28;20027;-47
2022/07/10 08:42:32;;;;;;;0.17;0.13;;;24.30;44.40;;;;;;6263831;28;20051;-43
2022/07/10 08:45:34;;;;;;;0.20;0.20;;;24.30;44.10;;;;;;6284177;28;20082;-46
2022/07/10 08:48:42;;;;;;;0.20;0.20;;;24.40;44.00;;;;;;6273693;28;20562;-48
2022/07/10 08:51:51;;;;;;;0.40;0.20;;;24.40;43.70;;;;;;6277854;28;20153;-44
2022/07/10 08:54:53;;;;;;;0.40;0.20;;;24.40;43.40;;;;;;6280685;28;20280;-43
2022/07/10 08:57:56;;;;;;;0.20;0.20;;;24.50;43.30;;;;;;6276529;28;20197;-43
2022/07/10 09:00:57;;;;;;;0.40;0.22;;;24.50;43.10;;;;;;6264201;28;20074;-45
2022/07/10 09:03:59;;;;;;;0.20;0.13;;;24.50;42.90;;;;;;6282775;28;20549;-45
2022/07/10 09:07:01;;;;;;;0.35;0.20;;;24.40;42.60;;;;;;6275144;28;20039;-45
2022/07/10 09:10:07;;;;;;;0.20;0.20;;;24.40;42.50;;;;;;6282134;28;20495;-50
2022/07/10 09:13:10;;;;;;;0.20;0.20;;;24.50;42.40;;;;;;6258918;28;20292;-45
2022/07/10 09:16:21;;;;;;;0.40;0.10;;;24.50;42.30;;;;;;6281146;28;20158;-47
2022/07/10 09:19:24;;;;;;;0.30;0.10;;;24.50;42.00;;;;;;6284164;28;20044;-46
2022/07/10 09:22:26;;;;;;;0.30;0.20;;;24.40;42.50;;;;;;6245530;28;20325;-46
2022/07/10 09:25:32;;;;;;;0.13;0.10;;;24.50;41.70;;;;;;6272298;28;20146;-44
2022/07/10 09:28:34;;;;;;;0.10;0.10;;;24.50;41.60;;;;;;6267031;28;20032;-46
2022/07/10 09:31:49;;;;;;;0.10;0.10;;;24.50;41.50;;;;;;6288627;28;20471;-44
2022/07/10 09:36:04;;;;;;;0.20;0.20;;;24.50;41.30;;;;;;6289434;28;20051;-45
2022/07/10 09:38:13;;;;;;;0.20;0.20;;;24.50;41.30;;;;;;6272305;28;20124;-42
2022/07/10 09:41:17;;;;;;;0.20;0.20;;;24.50;41.20;;;;;;6286121;28;20078;-46
2022/07/10 09:44:19;;;;;;;0.10;0.10;;;24.50;41.10;;;;;;6284059;28;20031;-45
2022/07/10 09:47:23;;;;;;;0.43;0.20;;;24.50;40.90;;;;;;6281386;28;20051;-48
2022/07/10 09:50:27;;;;;;;0.40;0.20;;;24.50;40.90;;;;;;6277166;28;20250;-45
2022/07/10 09:53:30;;;;;;;0.30;0.17;;;24.60;40.70;;;;;;6283125;28;20374;-46
2022/07/10 09:56:43;;;;;;;0.13;0.13;;;24.50;40.60;;;;;;6287621;28;20142;-45
2022/07/10 09:59:45;;;;;;;0.10;0.10;;;24.60;40.40;;;;;;6243742;28;20373;-45
2022/07/10 10:02:47;;;;;;;0.10;0.10;;;24.60;40.30;;;;;;6286587;28;20304;-46
2022/07/10 10:05:55;;;;;;;0.13;0.13;;;24.40;40.10;;;;;;6285010;28;20052;-45
2022/07/10 10:09:03;;;;;;;0.20;0.20;;;24.50;40.10;;;;;;6256051;28;20078;-44
2022/07/10 10:12:10;;;;;;;0.20;0.17;;;24.60;40.10;;;;;;6279124;28;20151;-46
2022/07/10 10:15:13;;;;;;;0.13;0.10;;;24.60;40.00;;;;;;6277272;28;20120;-44
2022/07/10 10:18:20;;;;;;;0.28;0.20;;;24.50;39.90;;;;;;6282840;28;20106;-47
2022/07/10 10:21:22;;;;;;;0.10;0.10;;;24.50;39.80;;;;;;6262442;28;20469;-49
2022/07/10 10:24:26;;;;;;;0.22;0.20;;;24.60;40.40;;;;;;6281589;28;20123;-47
2022/07/10 10:27:28;;;;;;;0.20;0.20;;;24.60;39.80;;;;;;6295473;27;20159;-43
2022/07/10 10:30:31;;;;;;;0.25;0.20;;;24.60;39.70;;;;;;6295209;28;20407;-43
2022/07/10 10:33:48;;;;;;;0.30;0.22;;;24.60;39.60;;;;;;6291591;28;20048;-43
2022/07/10 10:36:49;;;;;;;0.82;0.28;;;24.50;39.40;;;;;;6293146;28;20127;-45
2022/07/10 10:39:53;;;;;;;0.30;0.30;;;24.60;39.50;;;;;;6295574;28;20036;-45
2022/07/10 10:43:16;;;;;;;0.43;0.28;;;24.60;39.40;;;;;;6290977;28;21039;-45
2022/07/10 10:46:25;;;;;;;0.30;0.28;;;24.60;39.20;;;;;;6287640;28;20032;-43
2022/07/10 10:49:48;;;;;;;0.22;0.20;;;24.60;39.20;;;;;;6262737;28;20090;-46
2022/07/10 10:53:01;;;;;;;0.25;0.20;;;24.70;39.80;;;;;;6290728;28;20122;-45
2022/07/10 10:56:25;;;;;;;0.50;0.20;;;24.60;39.00;;;;;;6289969;28;20567;-46
2022/07/10 10:59:45;;;;;;;0.82;0.30;;;24.70;38.90;;;;;;6282878;28;20039;-45
2022/07/10 11:02:47;;;;;;;0.30;0.25;;;24.70;38.80;;;;;;6283253;28;20046;-44
2022/07/10 11:05:50;;;;;;;0.30;0.20;;;24.70;38.90;;;;;;6275801;28;20047;-47
2022/07/10 11:08:51;;;;;;;0.30;0.20;;;24.60;38.60;;;;;;6249556;28;20147;-47
2022/07/10 11:12:08;;;;;;;0.20;0.20;;;24.60;38.60;;;;;;6277334;28;20044;-44
2022/07/10 11:15:15;;;;;;;0.30;0.20;;;24.70;38.50;;;;;;6284188;28;20050;-45
2022/07/10 11:18:20;;;;;;;0.25;0.20;;;24.60;38.40;;;;;;6291689;28;20054;-42
2022/07/10 11:21:23;;;;;;;0.20;0.20;;;24.70;38.40;;;;;;6273369;28;20044;-45
2022/07/10 11:24:40;;;;;;;0.30;0.20;;;24.70;38.30;;;;;;6277218;28;20076;-44
2022/07/10 11:27:59;;;;;;;0.20;0.20;;;24.80;38.30;;;;;;6262223;28;20036;-46
2022/07/10 11:31:01;;;;;;;0.28;0.20;;;24.70;38.10;;;;;;6255239;28;20040;-43
2022/07/10 11:34:03;;;;;;;0.20;0.20;;;24.70;38.10;;;;;;6276902;28;20162;-47
2022/07/10 11:37:14;;;;;;;0.20;0.20;;;24.70;38.10;;;;;;6280227;28;20609;-43
2022/07/10 11:40:16;;;;;;;0.22;0.10;;;24.70;38.00;;;;;;6276751;28;20150;-44
2022/07/10 11:43:20;;;;;;;0.30;0.25;;;24.70;38.00;;;;;;6254360;28;20474;-44
2022/07/10 11:46:23;;;;;;;0.20;0.20;;;24.80;38.00;;;;;;6275577;28;20221;-43
2022/07/10 11:49:25;;;;;;;0.20;0.20;;;24.60;37.90;;;;;;6265946;28;20050;-44
2022/07/10 11:52:39;;;;;;;0.25;0.20;;;24.70;37.90;;;;;;6293434;28;20287;-45
2022/07/10 11:55:41;;;;;;;0.10;0.10;;;24.70;37.80;;;;;;6288223;28;20050;-45
2022/07/10 11:58:42;;;;;;;0.30;0.30;;;24.70;37.80;;;;;;6285217;28;20043;-43
2022/07/10 12:01:46;;;;;;;0.20;0.20;;;24.70;37.80;;;;;;6284414;28;20060;-43
2022/07/10 12:04:48;;;;;;;0.30;0.20;;;24.70;37.70;;;;;;6271407;28;20113;-45
2022/07/10 12:07:50;;;;;;;0.30;0.25;;;24.70;37.70;;;;;;6280326;28;20048;-44
2022/07/10 12:10:51;;;;;;;0.30;0.30;;;24.70;37.70;;;;;;6275463;28;20083;-45
2022/07/10 12:13:54;;;;;;;0.20;0.20;;;24.70;37.60;;;;;;6276171;28;20090;-43
2022/07/10 12:16:56;;;;;;;0.20;0.20;;;24.70;37.60;;;;;;6277864;28;20150;-44
2022/07/10 12:19:59;;;;;;;0.20;0.20;;;24.70;37.50;;;;;;6242466;28;20495;-43
2022/07/10 12:23:01;;;;;;;0.30;0.20;;;24.70;37.40;;;;;;6274883;28;20098;-45
2022/07/10 12:26:03;;;;;;;0.20;0.20;;;24.80;37.50;;;;;;6276964;28;20472;-44
2022/07/10 12:29:19;;;;;;;0.20;0.20;;;24.80;37.40;;;;;;6277486;28;20338;-44
2022/07/10 12:32:22;;;;;;;0.20;0.20;;;24.80;37.30;;;;;;6255576;28;20159;-45
2022/07/10 12:35:24;;;;;;;0.25;0.20;;;24.80;37.40;;;;;;6250678;28;20462;-45
2022/07/10 12:38:27;;;;;;;0.30;0.22;;;24.70;37.30;;;;;;6264266;28;24595;-43
2022/07/10 12:41:29;;;;;;;0.30;0.20;;;24.80;37.40;;;;;;6273788;28;20871;-45
2022/07/10 12:44:34;;;;;;;0.43;0.35;;;24.80;37.40;;;;;;6267489;28;20551;-45
2022/07/10 12:47:44;;;;;;;0.30;0.20;;;24.90;37.40;;;;;;6252401;28;20461;-48
2022/07/10 12:50:46;;;;;;;0.20;0.20;;;24.70;37.30;;;;;;6277579;28;20048;-43
2022/07/10 12:53:48;;;;;;;0.30;0.30;;;24.80;37.40;;;;;;6272712;28;20043;-42
2022/07/10 12:56:57;;;;;;;0.30;0.20;;;24.70;37.50;;;;;;6266274;28;20130;-48
2022/07/10 13:00:04;;;;;;;0.20;0.20;;;24.80;37.70;;;;;;6267688;28;20039;-45
2022/07/10 13:03:08;;;;;;;0.30;0.28;;;24.80;37.80;;;;;;6249704;28;20090;-44
2022/07/10 13:06:27;;;;;;;0.20;0.20;;;25.00;37.90;;;;;;6250929;28;20498;-44
2022/07/10 13:09:28;;;;;;;0.22;0.20;;;24.70;37.90;;;;;;6243404;28;20998;-45
2022/07/10 13:12:30;;;;;;;0.20;0.20;;;24.80;38.00;;;;;;6272826;28;20170;-46
2022/07/10 13:15:34;;;;;;;0.30;0.30;;;24.90;38.20;;;;;;6267458;28;20150;-43
2022/07/10 13:18:35;;;;;;;0.30;0.20;;;24.80;38.20;;;;;;6258029;28;20071;-42
2022/07/10 13:21:38;;;;;;;0.20;0.20;;;24.70;38.20;;;;;;6268901;28;20468;-46
2022/07/10 13:24:39;;;;;;;0.28;0.20;;;24.80;38.40;;;;;;6262881;28;20043;-44
2022/07/10 13:27:42;;;;;;;0.32;0.25;;;24.80;38.40;;;;;;6277571;28;20315;-50
2022/07/10 13:30:43;;;;;;;0.22;0.20;;;24.70;38.50;;;;;;6267118;28;20450;-44
2022/07/10 13:33:45;;;;;;;0.20;0.20;;;24.80;38.60;;;;;;6276090;28;20047;-47
2022/07/10 13:36:47;;;;;;;0.60;0.20;;;24.80;38.70;;;;;;6266761;28;20391;-46
2022/07/10 13:39:48;;;;;;;0.17;0.17;;;24.80;38.70;;;;;;6277629;28;20164;-42
2022/07/10 13:42:50;;;;;;;0.43;0.22;;;24.80;38.90;;;;;;6280996;28;20083;-43
2022/07/10 13:45:52;;;;;;;0.30;0.20;;;24.70;38.90;;;;;;6277099;28;20146;-46
2022/07/10 13:48:53;;;;;;;0.25;0.25;;;24.80;39.00;;;;;;6276460;28;20078;-47
2022/07/10 13:51:55;;;;;;;0.20;0.20;;;24.80;39.10;;;;;;6275939;28;20459;-47
2022/07/10 13:54:57;;;;;;;0.20;0.20;;;24.80;39.20;;;;;;6273233;28;20078;-43
2022/07/10 13:57:59;;;;;;;0.20;0.20;;;24.80;39.30;;;;;;6277252;28;20082;-45
2022/07/10 14:01:01;;;;;;;0.15;0.10;;;24.80;39.40;;;;;;6279078;28;20050;-43
2022/07/10 14:04:02;;;;;;;0.32;0.20;;;24.80;39.50;;;;;;6268346;28;21281;-43
2022/07/10 14:07:05;;;;;;;0.28;0.20;;;24.80;39.60;;;;;;6268848;28;20039;-44
2022/07/10 14:10:08;;;;;;;0.28;0.22;;;24.90;39.60;;;;;;6276000;28;20868;-46
2022/07/10 14:13:10;;;;;;;0.20;0.20;;;24.80;39.60;;;;;;6270135;28;20146;-43
2022/07/10 14:16:17;;;;;;;0.32;0.28;;;24.80;39.90;;;;;;6260503;28;20575;-44
2022/07/10 14:19:18;;;;;;;0.40;0.20;;;24.80;39.80;;;;;;6276606;28;20482;-44
2022/07/10 14:22:21;;;;;;;0.28;0.20;;;24.80;39.80;;;;;;6271169;28;20465;-44
2022/07/10 14:25:26;;;;;;;0.20;0.20;;;24.80;39.90;;;;;;6271076;28;20614;-45
2022/07/10 14:28:28;;;;;;;0.40;0.20;;;24.70;40.00;;;;;;6264577;28;20311;-45
2022/07/10 14:31:30;;;;;;;0.20;0.20;;;24.80;40.10;;;;;;6266052;28;20048;-46
2022/07/10 14:34:32;;;;;;;0.20;0.15;;;24.80;40.10;;;;;;6265316;28;20821;-44
2022/07/10 14:37:34;;;;;;;0.20;0.20;;;24.70;40.10;;;;;;6265949;28;20206;-45
2022/07/10 14:40:36;;;;;;;0.20;0.20;;;24.80;40.20;;;;;;6258303;28;20217;-44
2022/07/10 14:43:38;;;;;;;0.10;0.10;;;24.70;40.20;;;;;;6263878;28;20334;-44
2022/07/10 14:46:40;;;;;;;0.20;0.17;;;24.90;40.40;;;;;;6261729;28;20548;-44
2022/07/10 14:49:41;;;;;;;0.20;0.20;;;24.80;40.30;;;;;;6276177;28;20138;-45
2022/07/10 14:52:43;;;;;;;0.20;0.20;;;24.80;40.40;;;;;;6266570;28;20051;-44
2022/07/10 14:55:45;;;;;;;0.30;0.20;;;24.80;40.40;;;;;;6263114;28;20159;-43
2022/07/10 14:58:47;;;;;;;0.20;0.20;;;24.80;40.50;;;;;;6258883;28;20376;-44
2022/07/10 15:02:08;;;;;;;0.20;0.20;;;24.80;40.60;;;;;;6231832;28;20164;-45
2022/07/10 15:05:10;;;;;;;0.20;0.10;;;24.80;40.60;;;;;;6261147;28;20050;-44
2022/07/10 15:08:12;;;;;;;0.35;0.25;;;24.90;40.70;;;;;;6260809;28;20731;-45
2022/07/10 15:11:22;;;;;;;0.10;0.10;;;24.90;40.80;;;;;;6261340;28;20384;-44
2022/07/10 15:14:24;;;;;;;0.40;0.30;;;24.80;40.80;;;;;;6263894;28;20491;-44
2022/07/10 15:17:26;;;;;;;0.28;0.28;;;24.90;40.90;;;;;;6270562;28;20336;-43
2022/07/10 15:20:27;;;;;;;0.20;0.20;;;24.80;40.90;;;;;;6270682;28;20177;-44
2022/07/10 15:23:29;;;;;;;0.30;0.25;;;24.80;40.90;;;;;;6267535;28;20558;-46
2022/07/10 15:26:31;;;;;;;0.20;0.20;;;24.80;41.00;;;;;;6269825;28;20051;-46
2022/07/10 15:29:33;;;;;;;0.20;0.20;;;24.90;41.10;;;;;;6278805;28;20362;-45
2022/07/10 15:32:34;;;;;;;0.20;0.20;;;24.90;41.10;;;;;;6274133;28;20057;-44
2022/07/10 15:35:36;;;;;;;0.28;0.20;;;24.90;41.20;;;;;;6262276;28;20075;-43
2022/07/10 15:38:38;;;;;;;0.30;0.30;;;24.90;41.20;;;;;;6265729;28;20262;-43
2022/07/10 15:41:40;;;;;;;0.20;0.20;;;24.90;41.20;;;;;;6266459;28;20362;-45
2022/07/10 15:44:42;;;;;;;0.20;0.20;;;24.80;41.20;;;;;;6269243;28;21292;-43
2022/07/10 15:47:43;;;;;;;0.20;0.20;;;24.90;41.30;;;;;;6269051;28;20305;-43
2022/07/10 15:50:45;;;;;;;0.30;0.30;;;24.90;41.30;;;;;;6261869;28;20157;-43
2022/07/10 15:53:47;;;;;;;0.25;0.20;;;24.80;41.30;;;;;;6254307;28;20375;-45
2022/07/10 15:56:48;;;;;;;0.20;0.20;;;25.00;41.40;;;;;;6261958;28;21014;-42
2022/07/10 15:59:50;;;;;;;0.20;0.20;;;24.90;41.40;;;;;;6260693;28;20122;-45
2022/07/10 16:02:52;;;;;;;0.47;0.20;;;24.90;41.40;;;;;;6253519;28;20050;-46